sensor_id;sensor_type;location;lat;lon;timestamp;P1;durP1;ratioP1;P2;durP2;ratioP2
58896;SDS011;44677;52.378;10.400;2023-04-25T00:01:20;9.00;;;4.70;;
58896;SDS011;44677;52.378;10.400;2023-04-25T00:03:49;9.60;;;5.70;;
58896;SDS011;44677;52.378;10.400;2023-04-25T00:06:15;11.40;;;4.90;;
58896;SDS011;44677;52.378;10.400;2023-04-25T00:08:43;7.10;;;4.50;;
58896;SDS011;44677;52.378;10.400;2023-04-25T00:11:08;10.60;;;4.80;;
58896;SDS011;44677;52.378;10.400;2023-04-25T00:13:34;8.00;;;4.50;;
58896;SDS011;44677;52.378;10.400;2023-04-25T00:16:00;8.50;;;5.20;;
58896;SDS011;44677;52.378;10.400;2023-04-25T00:18:28;6.60;;;4.60;;
58896;SDS011;44677;52.378;10.400;2023-04-25T00:20:55;7.90;;;4.90;;
58896;SDS011;44677;52.378;10.400;2023-04-25T00:23:20;10.50;;;4.80;;
58896;SDS011;44677;52.378;10.400;2023-04-25T00:25:48;11.40;;;5.00;;
58896;SDS011;44677;52.378;10.400;2023-04-25T00:28:15;9.10;;;4.40;;
58896;SDS011;44677;52.378;10.400;2023-04-25T00:30:41;9.20;;;4.60;;
58896;SDS011;44677;52.378;10.400;2023-04-25T00:33:07;7.50;;;4.00;;
58896;SDS011;44677;52.378;10.400;2023-04-25T00:35:33;10.90;;;4.70;;
58896;SDS011;44677;52.378;10.400;2023-04-25T00:37:59;10.20;;;4.80;;
58896;SDS011;44677;52.378;10.400;2023-04-25T00:40:25;18.50;;;4.70;;
58896;SDS011;44677;52.378;10.400;2023-04-25T00:42:51;10.90;;;4.30;;
58896;SDS011;44677;52.378;10.400;2023-04-25T00:45:19;10.60;;;4.80;;
58896;SDS011;44677;52.378;10.400;2023-04-25T00:47:46;10.70;;;5.40;;
58896;SDS011;44677;52.378;10.400;2023-04-25T00:50:12;9.40;;;4.30;;
58896;SDS011;44677;52.378;10.400;2023-04-25T00:52:39;10.80;;;4.70;;
58896;SDS011;44677;52.378;10.400;2023-04-25T00:55:07;11.30;;;4.90;;
58896;SDS011;44677;52.378;10.400;2023-04-25T00:57:34;11.30;;;5.00;;
58896;SDS011;44677;52.378;10.400;2023-04-25T01:00:00;7.40;;;4.70;;
58896;SDS011;44677;52.378;10.400;2023-04-25T01:02:27;10.40;;;4.80;;
58896;SDS011;44677;52.378;10.400;2023-04-25T01:04:55;10.90;;;4.80;;
58896;SDS011;44677;52.378;10.400;2023-04-25T01:07:21;10.80;;;4.70;;
58896;SDS011;44677;52.378;10.400;2023-04-25T01:09:46;13.20;;;5.40;;
58896;SDS011;44677;52.378;10.400;2023-04-25T01:12:12;10.80;;;5.00;;
58896;SDS011;44677;52.378;10.400;2023-04-25T01:14:41;10.40;;;4.40;;
58896;SDS011;44677;52.378;10.400;2023-04-25T01:17:07;9.60;;;4.30;;
58896;SDS011;44677;52.378;10.400;2023-04-25T01:19:35;7.70;;;4.40;;
58896;SDS011;44677;52.378;10.400;2023-04-25T01:22:01;8.60;;;4.90;;
58896;SDS011;44677;52.378;10.400;2023-04-25T01:24:28;7.60;;;4.50;;
58896;SDS011;44677;52.378;10.400;2023-04-25T01:26:54;13.00;;;4.90;;
58896;SDS011;44677;52.378;10.400;2023-04-25T01:29:23;11.30;;;5.10;;
58896;SDS011;44677;52.378;10.400;2023-04-25T01:31:49;12.20;;;4.60;;
58896;SDS011;44677;52.378;10.400;2023-04-25T01:34:17;6.00;;;4.30;;
58896;SDS011;44677;52.378;10.400;2023-04-25T01:36:43;13.50;;;5.20;;
58896;SDS011;44677;52.378;10.400;2023-04-25T01:39:09;8.10;;;5.20;;
58896;SDS011;44677;52.378;10.400;2023-04-25T01:41:35;10.00;;;4.80;;
58896;SDS011;44677;52.378;10.400;2023-04-25T01:44:01;13.30;;;4.70;;
58896;SDS011;44677;52.378;10.400;2023-04-25T01:46:28;10.00;;;4.50;;
58896;SDS011;44677;52.378;10.400;2023-04-25T01:48:54;10.50;;;4.70;;
58896;SDS011;44677;52.378;10.400;2023-04-25T01:51:20;11.20;;;5.40;;
58896;SDS011;44677;52.378;10.400;2023-04-25T01:53:45;10.90;;;5.00;;
58896;SDS011;44677;52.378;10.400;2023-04-25T01:56:13;12.00;;;4.90;;
58896;SDS011;44677;52.378;10.400;2023-04-25T01:58:39;9.80;;;4.60;;
58896;SDS011;44677;52.378;10.400;2023-04-25T02:01:15;8.90;;;5.60;;
58896;SDS011;44677;52.378;10.400;2023-04-25T02:03:47;8.20;;;5.00;;
58896;SDS011;44677;52.378;10.400;2023-04-25T02:06:25;9.90;;;5.00;;
58896;SDS011;44677;52.378;10.400;2023-04-25T02:08:52;9.00;;;5.80;;
58896;SDS011;44677;52.378;10.400;2023-04-25T02:11:18;10.90;;;5.20;;
58896;SDS011;44677;52.378;10.400;2023-04-25T02:13:52;10.50;;;4.90;;
58896;SDS011;44677;52.378;10.400;2023-04-25T02:16:44;9.50;;;4.60;;
58896;SDS011;44677;52.378;10.400;2023-04-25T02:19:10;10.60;;;5.10;;
58896;SDS011;44677;52.378;10.400;2023-04-25T02:21:36;10.20;;;5.00;;
58896;SDS011;44677;52.378;10.400;2023-04-25T02:24:03;12.80;;;5.50;;
58896;SDS011;44677;52.378;10.400;2023-04-25T02:26:29;12.10;;;5.20;;
58896;SDS011;44677;52.378;10.400;2023-04-25T02:28:56;9.80;;;5.20;;
58896;SDS011;44677;52.378;10.400;2023-04-25T02:31:22;10.30;;;5.40;;
58896;SDS011;44677;52.378;10.400;2023-04-25T02:33:49;9.30;;;5.10;;
58896;SDS011;44677;52.378;10.400;2023-04-25T02:36:15;12.70;;;5.70;;
58896;SDS011;44677;52.378;10.400;2023-04-25T02:38:41;11.70;;;5.60;;
58896;SDS011;44677;52.378;10.400;2023-04-25T02:41:06;10.20;;;5.30;;
58896;SDS011;44677;52.378;10.400;2023-04-25T02:43:32;11.60;;;6.10;;
58896;SDS011;44677;52.378;10.400;2023-04-25T02:45:58;13.20;;;5.70;;
58896;SDS011;44677;52.378;10.400;2023-04-25T02:48:23;9.90;;;4.80;;
58896;SDS011;44677;52.378;10.400;2023-04-25T02:50:49;14.00;;;5.80;;
58896;SDS011;44677;52.378;10.400;2023-04-25T02:53:15;15.70;;;6.20;;
58896;SDS011;44677;52.378;10.400;2023-04-25T02:55:44;9.80;;;5.50;;
58896;SDS011;44677;52.378;10.400;2023-04-25T02:58:10;9.70;;;6.40;;
58896;SDS011;44677;52.378;10.400;2023-04-25T03:00:41;14.20;;;6.10;;
58896;SDS011;44677;52.378;10.400;2023-04-25T03:03:07;12.00;;;6.00;;
58896;SDS011;44677;52.378;10.400;2023-04-25T03:05:33;12.00;;;7.30;;
58896;SDS011;44677;52.378;10.400;2023-04-25T03:07:58;11.50;;;6.30;;
58896;SDS011;44677;52.378;10.400;2023-04-25T03:10:25;10.20;;;6.50;;
58896;SDS011;44677;52.378;10.400;2023-04-25T03:12:52;14.60;;;6.50;;
58896;SDS011;44677;52.378;10.400;2023-04-25T03:15:17;11.10;;;6.40;;
58896;SDS011;44677;52.378;10.400;2023-04-25T03:17:43;8.10;;;6.30;;
58896;SDS011;44677;52.378;10.400;2023-04-25T03:20:09;12.40;;;6.30;;
58896;SDS011;44677;52.378;10.400;2023-04-25T03:22:36;14.10;;;6.30;;
58896;SDS011;44677;52.378;10.400;2023-04-25T03:25:02;10.90;;;5.80;;
58896;SDS011;44677;52.378;10.400;2023-04-25T03:27:27;10.50;;;6.00;;
58896;SDS011;44677;52.378;10.400;2023-04-25T03:29:53;18.50;;;5.80;;
58896;SDS011;44677;52.378;10.400;2023-04-25T03:32:18;16.10;;;5.00;;
58896;SDS011;44677;52.378;10.400;2023-04-25T03:34:45;15.50;;;6.10;;
58896;SDS011;44677;52.378;10.400;2023-04-25T03:37:10;13.40;;;4.80;;
58896;SDS011;44677;52.378;10.400;2023-04-25T03:39:36;16.40;;;5.00;;
58896;SDS011;44677;52.378;10.400;2023-04-25T03:42:05;9.70;;;3.60;;
58896;SDS011;44677;52.378;10.400;2023-04-25T03:44:30;14.90;;;4.00;;
58896;SDS011;44677;52.378;10.400;2023-04-25T03:46:56;11.90;;;4.30;;
58896;SDS011;44677;52.378;10.400;2023-04-25T03:49:22;14.20;;;4.50;;
58896;SDS011;44677;52.378;10.400;2023-04-25T03:52:05;9.30;;;3.90;;
58896;SDS011;44677;52.378;10.400;2023-04-25T03:54:40;12.40;;;3.90;;
58896;SDS011;44677;52.378;10.400;2023-04-25T03:57:14;12.30;;;4.50;;
58896;SDS011;44677;52.378;10.400;2023-04-25T03:59:48;12.30;;;4.30;;
58896;SDS011;44677;52.378;10.400;2023-04-25T04:02:14;9.20;;;4.00;;
58896;SDS011;44677;52.378;10.400;2023-04-25T04:04:42;19.40;;;3.90;;
58896;SDS011;44677;52.378;10.400;2023-04-25T04:07:09;16.50;;;4.50;;
58896;SDS011;44677;52.378;10.400;2023-04-25T04:09:39;9.40;;;4.10;;
58896;SDS011;44677;52.378;10.400;2023-04-25T04:12:08;18.10;;;4.60;;
58896;SDS011;44677;52.378;10.400;2023-04-25T04:14:35;14.30;;;4.20;;
58896;SDS011;44677;52.378;10.400;2023-04-25T04:17:00;12.00;;;4.00;;
58896;SDS011;44677;52.378;10.400;2023-04-25T04:19:27;21.90;;;4.30;;
58896;SDS011;44677;52.378;10.400;2023-04-25T04:22:07;11.00;;;3.70;;
58896;SDS011;44677;52.378;10.400;2023-04-25T04:24:33;15.80;;;4.60;;
58896;SDS011;44677;52.378;10.400;2023-04-25T04:27:05;14.50;;;3.70;;
58896;SDS011;44677;52.378;10.400;2023-04-25T04:29:50;8.90;;;3.30;;
58896;SDS011;44677;52.378;10.400;2023-04-25T04:32:33;15.80;;;3.90;;
58896;SDS011;44677;52.378;10.400;2023-04-25T04:35:04;19.00;;;4.00;;
58896;SDS011;44677;52.378;10.400;2023-04-25T04:37:32;15.90;;;4.20;;
58896;SDS011;44677;52.378;10.400;2023-04-25T04:40:00;14.30;;;3.80;;
58896;SDS011;44677;52.378;10.400;2023-04-25T04:42:49;9.60;;;3.60;;
58896;SDS011;44677;52.378;10.400;2023-04-25T04:45:25;18.60;;;4.00;;
58896;SDS011;44677;52.378;10.400;2023-04-25T04:48:11;14.20;;;3.80;;
58896;SDS011;44677;52.378;10.400;2023-04-25T04:51:14;15.00;;;4.20;;
58896;SDS011;44677;52.378;10.400;2023-04-25T04:54:02;19.70;;;4.90;;
58896;SDS011;44677;52.378;10.400;2023-04-25T04:56:51;13.10;;;3.90;;
58896;SDS011;44677;52.378;10.400;2023-04-25T04:59:36;11.90;;;3.70;;
58896;SDS011;44677;52.378;10.400;2023-04-25T05:02:27;13.30;;;3.70;;
58896;SDS011;44677;52.378;10.400;2023-04-25T05:05:15;11.20;;;4.20;;
58896;SDS011;44677;52.378;10.400;2023-04-25T05:08:00;18.40;;;4.40;;
58896;SDS011;44677;52.378;10.400;2023-04-25T05:10:46;14.80;;;4.00;;
58896;SDS011;44677;52.378;10.400;2023-04-25T05:13:36;15.80;;;4.10;;
58896;SDS011;44677;52.378;10.400;2023-04-25T05:16:32;14.60;;;4.00;;
58896;SDS011;44677;52.378;10.400;2023-04-25T05:19:20;16.30;;;4.10;;
58896;SDS011;44677;52.378;10.400;2023-04-25T05:22:04;19.00;;;4.10;;
58896;SDS011;44677;52.378;10.400;2023-04-25T05:24:53;14.40;;;4.40;;
58896;SDS011;44677;52.378;10.400;2023-04-25T05:27:42;21.70;;;5.10;;
58896;SDS011;44677;52.378;10.400;2023-04-25T05:30:21;19.60;;;3.70;;
58896;SDS011;44677;52.378;10.400;2023-04-25T05:32:59;17.10;;;3.80;;
58896;SDS011;44677;52.378;10.400;2023-04-25T05:35:26;15.80;;;4.10;;
58896;SDS011;44677;52.378;10.400;2023-04-25T05:37:51;13.60;;;3.60;;
58896;SDS011;44677;52.378;10.400;2023-04-25T05:40:19;17.50;;;3.70;;
58896;SDS011;44677;52.378;10.400;2023-04-25T05:43:20;14.40;;;4.20;;
58896;SDS011;44677;52.378;10.400;2023-04-25T05:45:54;19.90;;;4.20;;
58896;SDS011;44677;52.378;10.400;2023-04-25T05:48:38;12.40;;;4.00;;
58896;SDS011;44677;52.378;10.400;2023-04-25T05:51:15;17.20;;;3.60;;
58896;SDS011;44677;52.378;10.400;2023-04-25T05:54:07;14.60;;;3.80;;
58896;SDS011;44677;52.378;10.400;2023-04-25T05:56:33;16.90;;;4.70;;
58896;SDS011;44677;52.378;10.400;2023-04-25T05:58:59;19.20;;;4.10;;
58896;SDS011;44677;52.378;10.400;2023-04-25T06:01:25;21.20;;;4.50;;
58896;SDS011;44677;52.378;10.400;2023-04-25T06:03:51;14.10;;;3.60;;
58896;SDS011;44677;52.378;10.400;2023-04-25T06:06:18;13.70;;;3.40;;
58896;SDS011;44677;52.378;10.400;2023-04-25T06:08:45;10.80;;;3.50;;
58896;SDS011;44677;52.378;10.400;2023-04-25T06:11:11;19.10;;;4.20;;
58896;SDS011;44677;52.378;10.400;2023-04-25T06:13:36;15.70;;;4.20;;
58896;SDS011;44677;52.378;10.400;2023-04-25T06:16:02;15.50;;;4.40;;
58896;SDS011;44677;52.378;10.400;2023-04-25T06:18:28;18.40;;;4.10;;
58896;SDS011;44677;52.378;10.400;2023-04-25T06:20:53;15.90;;;4.10;;
58896;SDS011;44677;52.378;10.400;2023-04-25T06:23:18;13.30;;;3.40;;
58896;SDS011;44677;52.378;10.400;2023-04-25T06:25:59;12.80;;;3.40;;
58896;SDS011;44677;52.378;10.400;2023-04-25T06:28:25;15.20;;;4.00;;
58896;SDS011;44677;52.378;10.400;2023-04-25T06:30:51;14.40;;;3.50;;
58896;SDS011;44677;52.378;10.400;2023-04-25T06:33:17;17.50;;;4.20;;
58896;SDS011;44677;52.378;10.400;2023-04-25T06:35:43;12.40;;;3.60;;
58896;SDS011;44677;52.378;10.400;2023-04-25T06:38:10;12.40;;;3.30;;
58896;SDS011;44677;52.378;10.400;2023-04-25T06:40:37;13.60;;;3.20;;
58896;SDS011;44677;52.378;10.400;2023-04-25T06:43:02;10.40;;;3.10;;
58896;SDS011;44677;52.378;10.400;2023-04-25T06:45:54;10.70;;;3.00;;
58896;SDS011;44677;52.378;10.400;2023-04-25T06:48:20;11.10;;;2.80;;
58896;SDS011;44677;52.378;10.400;2023-04-25T06:50:45;12.00;;;2.80;;
58896;SDS011;44677;52.378;10.400;2023-04-25T06:53:11;13.70;;;3.20;;
58896;SDS011;44677;52.378;10.400;2023-04-25T06:55:37;16.70;;;3.30;;
58896;SDS011;44677;52.378;10.400;2023-04-25T06:58:23;12.70;;;3.20;;
58896;SDS011;44677;52.378;10.400;2023-04-25T07:00:57;10.10;;;2.70;;
58896;SDS011;44677;52.378;10.400;2023-04-25T07:05:53;16.80;;;3.60;;
58896;SDS011;44677;52.378;10.400;2023-04-25T07:08:18;13.80;;;2.80;;
58896;SDS011;44677;52.378;10.400;2023-04-25T07:10:45;12.00;;;3.80;;
58896;SDS011;44677;52.378;10.400;2023-04-25T07:13:11;13.90;;;3.00;;
58896;SDS011;44677;52.378;10.400;2023-04-25T07:15:37;11.80;;;2.80;;
58896;SDS011;44677;52.378;10.400;2023-04-25T07:18:02;9.90;;;2.50;;
58896;SDS011;44677;52.378;10.400;2023-04-25T07:20:28;9.70;;;2.60;;
58896;SDS011;44677;52.378;10.400;2023-04-25T07:22:54;10.60;;;4.30;;
58896;SDS011;44677;52.378;10.400;2023-04-25T07:25:20;11.80;;;2.80;;
58896;SDS011;44677;52.378;10.400;2023-04-25T07:27:45;10.70;;;3.10;;
58896;SDS011;44677;52.378;10.400;2023-04-25T07:30:16;13.40;;;2.70;;
58896;SDS011;44677;52.378;10.400;2023-04-25T07:32:42;12.30;;;2.80;;
58896;SDS011;44677;52.378;10.400;2023-04-25T07:35:08;11.60;;;3.30;;
58896;SDS011;44677;52.378;10.400;2023-04-25T07:37:34;10.60;;;3.00;;
58896;SDS011;44677;52.378;10.400;2023-04-25T07:40:25;13.30;;;3.30;;
58896;SDS011;44677;52.378;10.400;2023-04-25T07:42:58;7.30;;;2.50;;
58896;SDS011;44677;52.378;10.400;2023-04-25T07:45:39;8.90;;;2.10;;
58896;SDS011;44677;52.378;10.400;2023-04-25T07:48:05;10.70;;;2.90;;
58896;SDS011;44677;52.378;10.400;2023-04-25T07:50:33;12.10;;;2.90;;
58896;SDS011;44677;52.378;10.400;2023-04-25T07:52:59;9.30;;;3.20;;
58896;SDS011;44677;52.378;10.400;2023-04-25T07:55:30;11.50;;;2.90;;
58896;SDS011;44677;52.378;10.400;2023-04-25T07:58:06;8.20;;;3.00;;
58896;SDS011;44677;52.378;10.400;2023-04-25T08:00:32;10.50;;;2.80;;
58896;SDS011;44677;52.378;10.400;2023-04-25T08:03:18;11.90;;;3.10;;
58896;SDS011;44677;52.378;10.400;2023-04-25T08:05:44;8.20;;;2.30;;
58896;SDS011;44677;52.378;10.400;2023-04-25T08:08:29;8.70;;;2.90;;
58896;SDS011;44677;52.378;10.400;2023-04-25T08:10:55;12.00;;;2.90;;
58896;SDS011;44677;52.378;10.400;2023-04-25T08:13:20;8.40;;;2.90;;
58896;SDS011;44677;52.378;10.400;2023-04-25T08:15:46;7.90;;;2.70;;
58896;SDS011;44677;52.378;10.400;2023-04-25T08:18:11;8.30;;;3.00;;
58896;SDS011;44677;52.378;10.400;2023-04-25T08:20:37;12.00;;;2.60;;
58896;SDS011;44677;52.378;10.400;2023-04-25T08:23:07;14.80;;;3.00;;
58896;SDS011;44677;52.378;10.400;2023-04-25T08:25:59;10.90;;;2.80;;
58896;SDS011;44677;52.378;10.400;2023-04-25T08:28:27;9.30;;;2.80;;
58896;SDS011;44677;52.378;10.400;2023-04-25T08:31:08;10.30;;;2.90;;
58896;SDS011;44677;52.378;10.400;2023-04-25T08:33:54;10.60;;;3.30;;
58896;SDS011;44677;52.378;10.400;2023-04-25T08:36:24;8.30;;;2.60;;
58896;SDS011;44677;52.378;10.400;2023-04-25T08:38:50;7.00;;;2.40;;
58896;SDS011;44677;52.378;10.400;2023-04-25T08:43:42;10.50;;;2.60;;
58896;SDS011;44677;52.378;10.400;2023-04-25T08:46:10;11.00;;;2.70;;
58896;SDS011;44677;52.378;10.400;2023-04-25T08:48:49;12.50;;;3.20;;
58896;SDS011;44677;52.378;10.400;2023-04-25T08:51:21;10.30;;;2.60;;
58896;SDS011;44677;52.378;10.400;2023-04-25T08:53:51;9.60;;;2.80;;
58896;SDS011;44677;52.378;10.400;2023-04-25T08:56:17;5.30;;;1.90;;
58896;SDS011;44677;52.378;10.400;2023-04-25T08:58:47;7.90;;;3.10;;
58896;SDS011;44677;52.378;10.400;2023-04-25T09:01:13;7.50;;;2.10;;
58896;SDS011;44677;52.378;10.400;2023-04-25T09:03:45;6.80;;;2.40;;
58896;SDS011;44677;52.378;10.400;2023-04-25T09:06:12;6.50;;;2.30;;
58896;SDS011;44677;52.378;10.400;2023-04-25T09:08:38;8.20;;;2.10;;
58896;SDS011;44677;52.378;10.400;2023-04-25T09:11:08;10.20;;;2.50;;
58896;SDS011;44677;52.378;10.400;2023-04-25T09:13:34;7.10;;;2.20;;
58896;SDS011;44677;52.378;10.400;2023-04-25T09:16:22;3.30;;;1.90;;
58896;SDS011;44677;52.378;10.400;2023-04-25T09:19:06;9.10;;;2.30;;
58896;SDS011;44677;52.378;10.400;2023-04-25T09:21:33;4.40;;;1.80;;
58896;SDS011;44677;52.378;10.400;2023-04-25T09:24:00;2.70;;;1.90;;
58896;SDS011;44677;52.378;10.400;2023-04-25T09:26:25;7.90;;;2.00;;
58896;SDS011;44677;52.378;10.400;2023-04-25T09:28:57;6.10;;;2.20;;
58896;SDS011;44677;52.378;10.400;2023-04-25T09:31:31;5.80;;;2.00;;
58896;SDS011;44677;52.378;10.400;2023-04-25T09:34:00;7.80;;;2.10;;
58896;SDS011;44677;52.378;10.400;2023-04-25T09:36:26;5.60;;;2.20;;
58896;SDS011;44677;52.378;10.400;2023-04-25T09:39:00;7.30;;;1.90;;
58896;SDS011;44677;52.378;10.400;2023-04-25T09:41:28;5.60;;;2.10;;
58896;SDS011;44677;52.378;10.400;2023-04-25T09:43:56;10.20;;;2.50;;
58896;SDS011;44677;52.378;10.400;2023-04-25T09:46:32;6.60;;;2.20;;
58896;SDS011;44677;52.378;10.400;2023-04-25T09:49:12;7.60;;;2.10;;
58896;SDS011;44677;52.378;10.400;2023-04-25T09:51:55;8.50;;;2.20;;
58896;SDS011;44677;52.378;10.400;2023-04-25T09:54:28;8.70;;;1.90;;
58896;SDS011;44677;52.378;10.400;2023-04-25T09:59:39;6.00;;;2.20;;
58896;SDS011;44677;52.378;10.400;2023-04-25T10:02:09;3.90;;;2.00;;
58896;SDS011;44677;52.378;10.400;2023-04-25T10:04:36;8.90;;;1.90;;
58896;SDS011;44677;52.378;10.400;2023-04-25T10:07:06;7.20;;;2.10;;
58896;SDS011;44677;52.378;10.400;2023-04-25T10:11:59;5.10;;;1.80;;
58896;SDS011;44677;52.378;10.400;2023-04-25T10:14:25;8.20;;;2.00;;
58896;SDS011;44677;52.378;10.400;2023-04-25T10:16:51;8.60;;;2.50;;
58896;SDS011;44677;52.378;10.400;2023-04-25T10:19:21;6.60;;;2.20;;
58896;SDS011;44677;52.378;10.400;2023-04-25T10:24:31;7.00;;;2.40;;
58896;SDS011;44677;52.378;10.400;2023-04-25T10:26:57;5.60;;;2.50;;
58896;SDS011;44677;52.378;10.400;2023-04-25T10:29:26;8.80;;;2.30;;
58896;SDS011;44677;52.378;10.400;2023-04-25T10:31:52;5.30;;;2.00;;
58896;SDS011;44677;52.378;10.400;2023-04-25T10:34:18;2.10;;;1.80;;
58896;SDS011;44677;52.378;10.400;2023-04-25T10:36:50;7.40;;;1.60;;
58896;SDS011;44677;52.378;10.400;2023-04-25T10:39:24;3.90;;;1.60;;
58896;SDS011;44677;52.378;10.400;2023-04-25T10:41:55;6.80;;;1.70;;
58896;SDS011;44677;52.378;10.400;2023-04-25T10:44:22;2.70;;;1.60;;
58896;SDS011;44677;52.378;10.400;2023-04-25T10:47:07;7.00;;;1.70;;
58896;SDS011;44677;52.378;10.400;2023-04-25T10:54:41;3.90;;;1.70;;
58896;SDS011;44677;52.378;10.400;2023-04-25T10:57:14;3.90;;;1.50;;
58896;SDS011;44677;52.378;10.400;2023-04-25T10:59:53;7.70;;;2.00;;
58896;SDS011;44677;52.378;10.400;2023-04-25T11:02:19;6.20;;;2.30;;
58896;SDS011;44677;52.378;10.400;2023-04-25T11:04:45;2.80;;;1.60;;
58896;SDS011;44677;52.378;10.400;2023-04-25T11:10:01;7.80;;;1.60;;
58896;SDS011;44677;52.378;10.400;2023-04-25T11:12:29;8.30;;;1.90;;
58896;SDS011;44677;52.378;10.400;2023-04-25T11:15:05;6.90;;;2.30;;
58896;SDS011;44677;52.378;10.400;2023-04-25T11:17:32;3.30;;;1.60;;
58896;SDS011;44677;52.378;10.400;2023-04-25T11:19:58;2.80;;;1.60;;
58896;SDS011;44677;52.378;10.400;2023-04-25T11:22:23;2.80;;;1.50;;
58896;SDS011;44677;52.378;10.400;2023-04-25T11:24:49;4.70;;;1.60;;
58896;SDS011;44677;52.378;10.400;2023-04-25T11:27:15;4.90;;;2.00;;
58896;SDS011;44677;52.378;10.400;2023-04-25T11:29:41;8.20;;;2.60;;
58896;SDS011;44677;52.378;10.400;2023-04-25T11:32:06;4.20;;;1.70;;
58896;SDS011;44677;52.378;10.400;2023-04-25T11:34:33;3.70;;;2.00;;
58896;SDS011;44677;52.378;10.400;2023-04-25T11:37:01;5.40;;;2.00;;
58896;SDS011;44677;52.378;10.400;2023-04-25T11:39:28;7.30;;;2.50;;
58896;SDS011;44677;52.378;10.400;2023-04-25T11:41:54;10.70;;;2.50;;
58896;SDS011;44677;52.378;10.400;2023-04-25T11:44:20;9.40;;;1.70;;
58896;SDS011;44677;52.378;10.400;2023-04-25T11:46:45;5.50;;;2.00;;
58896;SDS011;44677;52.378;10.400;2023-04-25T11:49:11;6.70;;;2.30;;
58896;SDS011;44677;52.378;10.400;2023-04-25T11:51:38;7.30;;;2.50;;
58896;SDS011;44677;52.378;10.400;2023-04-25T11:54:11;4.70;;;2.20;;
58896;SDS011;44677;52.378;10.400;2023-04-25T11:56:37;9.30;;;2.30;;
58896;SDS011;44677;52.378;10.400;2023-04-25T11:59:06;2.60;;;1.60;;
58896;SDS011;44677;52.378;10.400;2023-04-25T12:03:58;4.30;;;1.60;;
58896;SDS011;44677;52.378;10.400;2023-04-25T12:06:30;3.70;;;1.50;;
58896;SDS011;44677;52.378;10.400;2023-04-25T12:09:06;4.30;;;1.40;;
58896;SDS011;44677;52.378;10.400;2023-04-25T12:11:39;3.50;;;1.40;;
58896;SDS011;44677;52.378;10.400;2023-04-25T12:14:06;4.40;;;1.60;;
58896;SDS011;44677;52.378;10.400;2023-04-25T12:16:42;3.70;;;1.20;;
58896;SDS011;44677;52.378;10.400;2023-04-25T12:19:13;3.10;;;1.50;;
58896;SDS011;44677;52.378;10.400;2023-04-25T12:21:40;5.30;;;2.00;;
58896;SDS011;44677;52.378;10.400;2023-04-25T12:24:16;5.50;;;1.80;;
58896;SDS011;44677;52.378;10.400;2023-04-25T12:26:55;5.20;;;1.70;;
58896;SDS011;44677;52.378;10.400;2023-04-25T12:29:33;3.60;;;1.20;;
58896;SDS011;44677;52.378;10.400;2023-04-25T12:31:59;3.50;;;1.60;;
58896;SDS011;44677;52.378;10.400;2023-04-25T12:34:26;5.90;;;1.70;;
58896;SDS011;44677;52.378;10.400;2023-04-25T12:36:52;3.50;;;1.70;;
58896;SDS011;44677;52.378;10.400;2023-04-25T12:39:19;4.20;;;1.60;;
58896;SDS011;44677;52.378;10.400;2023-04-25T12:42:04;7.50;;;1.90;;
58896;SDS011;44677;52.378;10.400;2023-04-25T12:44:29;4.70;;;1.40;;
58896;SDS011;44677;52.378;10.400;2023-04-25T12:46:55;2.00;;;1.30;;
58896;SDS011;44677;52.378;10.400;2023-04-25T12:49:20;1.80;;;0.90;;
58896;SDS011;44677;52.378;10.400;2023-04-25T12:51:46;3.00;;;1.00;;
58896;SDS011;44677;52.378;10.400;2023-04-25T12:54:12;2.00;;;0.80;;
58896;SDS011;44677;52.378;10.400;2023-04-25T12:56:37;2.10;;;0.70;;
58896;SDS011;44677;52.378;10.400;2023-04-25T12:59:03;3.00;;;1.00;;
58896;SDS011;44677;52.378;10.400;2023-04-25T13:01:29;2.40;;;0.90;;
58896;SDS011;44677;52.378;10.400;2023-04-25T13:03:55;0.90;;;0.80;;
58896;SDS011;44677;52.378;10.400;2023-04-25T13:06:21;2.70;;;0.80;;
58896;SDS011;44677;52.378;10.400;2023-04-25T13:08:47;3.10;;;1.20;;
58896;SDS011;44677;52.378;10.400;2023-04-25T13:11:12;4.20;;;1.00;;
58896;SDS011;44677;52.378;10.400;2023-04-25T13:13:40;3.30;;;1.20;;
58896;SDS011;44677;52.378;10.400;2023-04-25T13:16:06;2.80;;;1.50;;
58896;SDS011;44677;52.378;10.400;2023-04-25T13:18:32;3.00;;;1.40;;
58896;SDS011;44677;52.378;10.400;2023-04-25T13:20:58;2.90;;;1.30;;
58896;SDS011;44677;52.378;10.400;2023-04-25T13:23:28;6.00;;;1.30;;
58896;SDS011;44677;52.378;10.400;2023-04-25T13:25:54;1.20;;;0.90;;
58896;SDS011;44677;52.378;10.400;2023-04-25T13:28:23;3.30;;;1.00;;
58896;SDS011;44677;52.378;10.400;2023-04-25T13:30:49;1.50;;;1.00;;
58896;SDS011;44677;52.378;10.400;2023-04-25T13:33:14;2.10;;;0.80;;
58896;SDS011;44677;52.378;10.400;2023-04-25T13:35:40;2.80;;;1.00;;
58896;SDS011;44677;52.378;10.400;2023-04-25T13:38:06;1.20;;;0.80;;
58896;SDS011;44677;52.378;10.400;2023-04-25T13:40:32;2.20;;;1.10;;
58896;SDS011;44677;52.378;10.400;2023-04-25T13:42:58;7.70;;;1.50;;
58896;SDS011;44677;52.378;10.400;2023-04-25T13:45:24;2.20;;;0.70;;
58896;SDS011;44677;52.378;10.400;2023-04-25T13:47:50;1.40;;;0.90;;
58896;SDS011;44677;52.378;10.400;2023-04-25T13:50:15;2.70;;;1.30;;
58896;SDS011;44677;52.378;10.400;2023-04-25T13:52:41;1.20;;;0.90;;
58896;SDS011;44677;52.378;10.400;2023-04-25T13:55:07;2.60;;;1.50;;
58896;SDS011;44677;52.378;10.400;2023-04-25T13:57:34;9.50;;;1.90;;
58896;SDS011;44677;52.378;10.400;2023-04-25T14:00:00;5.70;;;1.60;;
58896;SDS011;44677;52.378;10.400;2023-04-25T14:02:31;1.10;;;1.00;;
58896;SDS011;44677;52.378;10.400;2023-04-25T14:04:57;5.30;;;1.00;;
58896;SDS011;44677;52.378;10.400;2023-04-25T14:07:22;2.30;;;0.70;;
58896;SDS011;44677;52.378;10.400;2023-04-25T14:09:48;3.20;;;1.20;;
58896;SDS011;44677;52.378;10.400;2023-04-25T14:12:13;3.90;;;1.30;;
58896;SDS011;44677;52.378;10.400;2023-04-25T14:14:39;5.80;;;1.40;;
58896;SDS011;44677;52.378;10.400;2023-04-25T14:17:04;3.50;;;1.70;;
58896;SDS011;44677;52.378;10.400;2023-04-25T14:19:30;5.50;;;1.30;;
58896;SDS011;44677;52.378;10.400;2023-04-25T14:21:55;4.00;;;1.20;;
58896;SDS011;44677;52.378;10.400;2023-04-25T14:24:21;3.40;;;1.50;;
58896;SDS011;44677;52.378;10.400;2023-04-25T14:26:46;6.10;;;1.50;;
58896;SDS011;44677;52.378;10.400;2023-04-25T14:29:12;3.30;;;1.40;;
58896;SDS011;44677;52.378;10.400;2023-04-25T14:31:38;1.50;;;1.20;;
58896;SDS011;44677;52.378;10.400;2023-04-25T14:34:06;3.10;;;1.20;;
58896;SDS011;44677;52.378;10.400;2023-04-25T14:36:31;6.40;;;1.80;;
58896;SDS011;44677;52.378;10.400;2023-04-25T14:38:58;5.40;;;1.20;;
58896;SDS011;44677;52.378;10.400;2023-04-25T14:41:24;2.50;;;1.20;;
58896;SDS011;44677;52.378;10.400;2023-04-25T14:43:50;3.80;;;1.20;;
58896;SDS011;44677;52.378;10.400;2023-04-25T14:46:16;4.10;;;1.00;;
58896;SDS011;44677;52.378;10.400;2023-04-25T14:48:43;2.20;;;1.30;;
58896;SDS011;44677;52.378;10.400;2023-04-25T14:51:09;1.70;;;1.20;;
58896;SDS011;44677;52.378;10.400;2023-04-25T14:53:35;3.60;;;1.10;;
58896;SDS011;44677;52.378;10.400;2023-04-25T14:56:01;4.50;;;1.20;;
58896;SDS011;44677;52.378;10.400;2023-04-25T14:58:26;4.90;;;1.50;;
58896;SDS011;44677;52.378;10.400;2023-04-25T15:00:52;4.00;;;1.30;;
58896;SDS011;44677;52.378;10.400;2023-04-25T15:03:17;7.40;;;2.30;;
58896;SDS011;44677;52.378;10.400;2023-04-25T15:05:43;4.70;;;1.60;;